createdAt,value
2024-05-09T00:00:43.853Z,12.40
2024-05-09T00:03:12.283Z,12.40
2024-05-09T00:05:44.276Z,12.40
2024-05-09T00:08:12.598Z,12.40
2024-05-09T00:10:41.181Z,12.40
2024-05-09T00:13:10.497Z,12.40
2024-05-09T00:15:39.003Z,12.30
2024-05-09T00:18:07.695Z,12.30
2024-05-09T00:20:39.465Z,12.30
2024-05-09T00:23:11.094Z,12.20
2024-05-09T00:25:39.610Z,12.30
2024-05-09T00:28:07.361Z,12.30
2024-05-09T00:30:36.736Z,12.30
2024-05-09T00:33:07.259Z,12.30
2024-05-09T00:35:36.150Z,12.30
2024-05-09T00:38:04.367Z,12.20
2024-05-09T00:40:43.467Z,12.20
2024-05-09T00:43:12.993Z,12.20
2024-05-09T00:45:41.686Z,12.10
2024-05-09T00:48:11.595Z,12.10
2024-05-09T00:50:42.761Z,12.00
2024-05-09T00:53:15.942Z,11.90
2024-05-09T00:55:44.394Z,11.90
2024-05-09T00:58:15.459Z,11.90
2024-05-09T01:00:43.639Z,11.90
2024-05-09T01:03:13.219Z,11.90
2024-05-09T01:05:43.268Z,11.90
2024-05-09T01:08:12.141Z,11.90
2024-05-09T01:10:42.816Z,11.80
2024-05-09T01:13:12.470Z,11.70
2024-05-09T01:15:40.139Z,11.70
2024-05-09T01:18:11.281Z,11.60
2024-05-09T01:20:42.989Z,11.70
2024-05-09T01:23:14.380Z,11.70
2024-05-09T01:25:43.697Z,11.60
2024-05-09T01:28:11.422Z,11.60
2024-05-09T01:30:38.950Z,11.60
2024-05-09T01:33:09.088Z,11.60
2024-05-09T01:35:39.051Z,11.50
2024-05-09T01:38:07.904Z,11.60
2024-05-09T01:40:38.738Z,11.50
2024-05-09T01:43:11.732Z,11.50
2024-05-09T01:45:40.998Z,11.50
2024-05-09T01:48:10.459Z,11.40
2024-05-09T01:50:41.607Z,11.30
2024-05-09T01:53:12.496Z,11.20
2024-05-09T01:55:40.299Z,11.10
2024-05-09T01:58:08.705Z,11.10
2024-05-09T02:00:40.346Z,11.10
2024-05-09T02:03:16.632Z,11.10
2024-05-09T02:05:47.366Z,11.10
2024-05-09T02:08:18.291Z,11.10
2024-05-09T02:10:47.954Z,11.10
2024-05-09T02:13:16.219Z,11.10
2024-05-09T02:15:43.960Z,11.10
2024-05-09T02:18:11.990Z,11.00
2024-05-09T02:20:41.313Z,10.90
2024-05-09T02:23:09.801Z,10.90
2024-05-09T02:25:37.267Z,10.80
2024-05-09T02:28:04.924Z,10.80
2024-05-09T02:30:39.396Z,10.80
2024-05-09T02:33:12.927Z,10.70
2024-05-09T02:35:42.764Z,10.70
2024-05-09T02:38:11.220Z,10.70
2024-05-09T02:40:41.026Z,10.70
2024-05-09T02:43:10.668Z,10.70
2024-05-09T02:45:40.282Z,10.70
2024-05-09T02:48:11.204Z,10.70
2024-05-09T02:50:42.189Z,10.70
2024-05-09T02:53:11.345Z,10.70
2024-05-09T02:55:39.423Z,10.70
2024-05-09T02:58:10.411Z,10.70
2024-05-09T03:00:41.076Z,10.70
2024-05-09T03:03:13.224Z,10.60
2024-05-09T03:05:44.380Z,10.50
2024-05-09T03:08:12.322Z,10.50
2024-05-09T03:10:40.168Z,10.40
2024-05-09T03:13:14.887Z,10.40
2024-05-09T03:15:43.864Z,10.40
2024-05-09T03:18:12.323Z,10.40
2024-05-09T03:20:40.575Z,10.40
2024-05-09T03:23:09.872Z,10.30
2024-05-09T03:25:38.562Z,10.40
2024-05-09T03:28:06.795Z,10.30
2024-05-09T03:30:40.686Z,10.40
2024-05-09T03:33:18.802Z,10.40
2024-05-09T03:35:48.247Z,10.40
2024-05-09T03:38:16.174Z,10.40
2024-05-09T03:40:50.704Z,10.40
2024-05-09T03:43:19.975Z,10.40
2024-05-09T03:45:49.464Z,10.40
2024-05-09T03:48:17.336Z,10.40
2024-05-09T03:50:45.135Z,10.40
2024-05-09T03:53:14.049Z,10.40
2024-05-09T03:55:41.955Z,10.40
2024-05-09T03:58:09.620Z,10.40
2024-05-09T04:00:39.438Z,10.40
2024-05-09T04:03:10.549Z,10.40
2024-05-09T04:05:41.600Z,10.50
2024-05-09T04:08:10.704Z,10.50
2024-05-09T04:10:38.410Z,10.50
2024-05-09T04:13:05.918Z,10.50
2024-05-09T04:15:33.708Z,10.50
2024-05-09T04:18:01.963Z,10.50
2024-05-09T04:20:37.566Z,10.60
2024-05-09T04:23:11.044Z,10.60
2024-05-09T04:25:38.799Z,10.60
2024-05-09T04:28:06.223Z,10.60
2024-05-09T04:30:38.620Z,10.60
2024-05-09T04:33:11.151Z,10.60
2024-05-09T04:35:42.134Z,10.60
2024-05-09T04:38:10.075Z,10.60
2024-05-09T04:40:38.246Z,10.60
2024-05-09T04:43:07.066Z,10.70
2024-05-09T04:45:35.291Z,10.70
2024-05-09T04:48:03.510Z,10.70
2024-05-09T04:50:37.362Z,10.80
2024-05-09T04:53:08.747Z,10.80
2024-05-09T04:55:37.732Z,10.80
2024-05-09T04:58:07.264Z,10.80
2024-05-09T05:00:37.273Z,10.80
2024-05-09T05:03:10.353Z,10.80
2024-05-09T05:05:41.017Z,10.80
2024-05-09T05:08:16.266Z,10.80
2024-05-09T05:10:45.226Z,10.90
2024-05-09T05:13:17.810Z,10.80
2024-05-09T05:15:50.522Z,10.90
2024-05-09T05:18:18.933Z,11.00
2024-05-09T05:20:46.675Z,11.00
2024-05-09T05:23:16.716Z,11.00
2024-05-09T05:25:44.997Z,11.00
2024-05-09T05:28:12.364Z,10.90
2024-05-09T05:30:40.971Z,10.90
2024-05-09T05:33:11.802Z,10.90
2024-05-09T05:35:39.702Z,10.90
2024-05-09T05:38:08.191Z,11.00
2024-05-09T05:40:38.376Z,11.10
2024-05-09T05:43:11.015Z,11.20
2024-05-09T05:45:39.326Z,11.10
2024-05-09T05:48:08.065Z,11.10
2024-05-09T05:50:38.247Z,11.10
2024-05-09T05:53:08.409Z,11.10
2024-05-09T05:55:40.253Z,11.10
2024-05-09T05:58:11.152Z,11.10
2024-05-09T06:00:40.422Z,11.20
2024-05-09T06:03:11.330Z,11.20
2024-05-09T06:05:40.215Z,11.20
2024-05-09T06:08:08.791Z,11.20
2024-05-09T06:10:39.526Z,11.30
2024-05-09T06:13:12.748Z,11.20
2024-05-09T06:15:41.328Z,11.30
2024-05-09T06:18:10.675Z,11.40
2024-05-09T06:20:40.362Z,11.50
2024-05-09T06:23:09.719Z,11.50
2024-05-09T06:25:38.244Z,11.50
2024-05-09T06:28:06.111Z,11.60
2024-05-09T06:30:40.053Z,11.70
2024-05-09T06:33:12.674Z,11.60
2024-05-09T06:35:42.556Z,11.70
2024-05-09T06:38:10.200Z,11.70
2024-05-09T06:40:42.543Z,11.80
2024-05-09T06:43:12.605Z,11.80
2024-05-09T06:45:40.287Z,11.70
2024-05-09T06:48:09.126Z,11.70
2024-05-09T06:50:38.555Z,11.70
2024-05-09T06:53:08.480Z,11.90
2024-05-09T06:55:36.758Z,11.80
2024-05-09T06:58:06.985Z,11.90
2024-05-09T07:00:39.196Z,12.00
2024-05-09T07:03:11.016Z,12.00
2024-05-09T07:05:40.010Z,12.10
2024-05-09T07:08:07.908Z,12.10
2024-05-09T07:10:36.864Z,12.10
2024-05-09T07:13:12.707Z,12.10
2024-05-09T07:15:41.280Z,12.20
2024-05-09T07:18:10.575Z,12.30
2024-05-09T07:20:39.331Z,12.40
2024-05-09T07:23:10.084Z,12.40
2024-05-09T07:25:37.757Z,12.40
2024-05-09T07:28:05.577Z,12.50
2024-05-09T07:30:34.565Z,12.50
2024-05-09T07:33:04.273Z,12.60
2024-05-09T07:35:31.852Z,12.60
2024-05-09T07:37:59.439Z,12.80
2024-05-09T07:40:34.620Z,12.80
2024-05-09T07:43:05.220Z,13.00
2024-05-09T07:52:23.506Z,13.10
2024-05-09T07:53:39.036Z,13.20
2024-05-09T07:56:09.870Z,13.10
2024-05-09T07:58:37.931Z,13.20
2024-05-09T08:01:05.975Z,13.40
2024-05-09T08:03:33.910Z,13.70
2024-05-09T08:06:01.588Z,13.70
2024-05-09T08:08:29.234Z,13.90
2024-05-09T08:10:56.904Z,13.90
2024-05-09T08:13:24.300Z,13.90
2024-05-09T08:15:52.486Z,14.00
2024-05-09T08:18:20.422Z,14.30
2024-05-09T08:20:49.939Z,14.40
2024-05-09T08:23:17.927Z,14.50
2024-05-09T08:25:45.551Z,14.60
2024-05-09T08:28:13.201Z,14.60
2024-05-09T08:30:40.772Z,14.80
2024-05-09T08:33:09.648Z,15.00
2024-05-09T08:35:37.133Z,15.10
2024-05-09T08:38:06.161Z,15.30
2024-05-09T08:40:36.772Z,15.40
2024-05-09T08:43:11.684Z,15.50
2024-05-09T08:45:45.215Z,15.60
2024-05-09T08:48:15.771Z,15.80
2024-05-09T08:50:45.127Z,16.10
2024-05-09T08:53:15.371Z,16.10
2024-05-09T08:55:44.323Z,16.20
2024-05-09T08:58:19.870Z,16.20
2024-05-09T09:00:48.239Z,16.40
2024-05-09T09:03:19.380Z,16.70
2024-05-09T09:06:23.293Z,16.80
2024-05-09T09:08:51.401Z,16.90
2024-05-09T09:11:18.943Z,17.30
2024-05-09T09:13:46.271Z,17.40
2024-05-09T09:16:14.178Z,17.60
2024-05-09T09:18:46.371Z,17.70
2024-05-09T09:21:13.886Z,17.90
2024-05-09T09:23:41.420Z,18.10
2024-05-09T09:26:08.892Z,18.30
2024-05-09T09:28:40.618Z,18.50
2024-05-09T09:31:08.138Z,18.70
2024-05-09T09:33:36.486Z,18.90
2024-05-09T09:36:06.300Z,19.00
2024-05-09T09:38:37.671Z,18.80
2024-05-09T09:41:08.563Z,19.00
2024-05-09T09:43:37.356Z,19.00
2024-05-09T09:46:08.715Z,19.20
2024-05-09T09:48:40.720Z,19.30
2024-05-09T09:51:09.089Z,19.50
2024-05-09T09:53:38.413Z,19.60
2024-05-09T09:56:08.262Z,19.70
2024-05-09T09:58:36.660Z,19.80
2024-05-09T10:01:04.187Z,19.60
2024-05-09T10:03:32.542Z,19.60
2024-05-09T10:06:00.711Z,19.70
2024-05-09T10:08:28.288Z,20.00
2024-05-09T10:10:56.033Z,20.30
2024-05-09T10:13:33.666Z,20.60
2024-05-09T10:16:09.328Z,20.80
2024-05-09T10:18:38.718Z,20.90
2024-05-09T10:21:16.862Z,21.20
2024-05-09T10:24:10.439Z,21.40
2024-05-09T10:26:38.837Z,21.70
2024-05-09T10:29:15.711Z,21.80
2024-05-09T10:31:47.351Z,22.00
2024-05-09T10:34:22.788Z,22.00
2024-05-09T10:36:55.002Z,22.00
2024-05-09T10:39:23.149Z,22.00
2024-05-09T10:41:50.579Z,22.20
2024-05-09T10:44:18.821Z,22.30
2024-05-09T10:46:46.682Z,22.20
2024-05-09T10:49:17.547Z,22.20
2024-05-09T10:51:47.253Z,22.10
2024-05-09T10:54:15.068Z,22.40
2024-05-09T10:56:42.454Z,22.70
2024-05-09T10:59:09.787Z,23.00
2024-05-09T11:01:37.492Z,23.40
2024-05-09T11:04:05.624Z,23.40
2024-05-09T11:06:35.989Z,23.50
2024-05-09T11:09:03.592Z,23.50
2024-05-09T11:11:31.078Z,23.90
2024-05-09T11:13:58.407Z,24.30
2024-05-09T11:16:26.132Z,25.60
2024-05-09T11:18:58.788Z,27.50
2024-05-09T11:21:26.982Z,29.70
2024-05-09T11:23:54.849Z,30.50
2024-05-09T11:26:22.704Z,31.00
2024-05-09T11:28:50.806Z,31.60
2024-05-09T11:31:18.937Z,32.40
2024-05-09T11:33:46.905Z,31.90
2024-05-09T11:36:15.468Z,31.50
2024-05-09T11:38:43.416Z,31.60
2024-05-09T11:41:17.910Z,32.90
2024-05-09T11:43:45.422Z,34.50
2024-05-09T11:46:13.219Z,34.30
2024-05-09T11:48:40.895Z,34.60
2024-05-09T11:51:08.560Z,34.70
2024-05-09T11:53:35.958Z,34.80
2024-05-09T11:56:03.522Z,34.60
2024-05-09T11:58:34.535Z,34.20
2024-05-09T12:01:02.227Z,33.90
2024-05-09T12:03:29.866Z,33.60
2024-05-09T12:05:57.641Z,34.00
2024-05-09T12:08:25.146Z,34.10
2024-05-09T12:10:52.710Z,34.00
2024-05-09T12:13:20.411Z,34.90
2024-05-09T12:15:48.049Z,34.60
2024-05-09T12:18:15.502Z,34.20
2024-05-09T12:20:43.336Z,34.90
2024-05-09T12:23:11.117Z,36.00
2024-05-09T12:25:40.137Z,35.80
2024-05-09T12:28:08.799Z,35.70
2024-05-09T12:30:40.771Z,35.70
2024-05-09T12:33:11.256Z,36.20
2024-05-09T12:35:39.765Z,34.90
2024-05-09T12:38:07.225Z,35.10
2024-05-09T12:40:37.811Z,34.80
2024-05-09T12:43:10.394Z,34.50
2024-05-09T12:45:39.180Z,34.50
2024-05-09T12:48:11.882Z,35.10
2024-05-09T12:50:40.485Z,35.50
2024-05-09T12:53:08.024Z,36.60
2024-05-09T12:55:44.484Z,37.60
2024-05-09T12:58:21.936Z,37.40
2024-05-09T13:00:49.990Z,37.30
2024-05-09T13:03:17.638Z,37.10
2024-05-09T13:05:45.911Z,36.40
2024-05-09T13:08:13.571Z,35.80
2024-05-09T13:10:41.593Z,35.00
2024-05-09T13:13:12.534Z,35.10
2024-05-09T13:15:40.511Z,35.00
2024-05-09T13:18:08.970Z,35.20
2024-05-09T13:20:37.299Z,35.40
2024-05-09T13:23:06.946Z,36.00
2024-05-09T13:25:35.684Z,36.80
2024-05-09T13:28:04.591Z,36.90
2024-05-09T13:30:39.313Z,36.70
2024-05-09T13:33:14.243Z,37.50
2024-05-09T13:35:47.264Z,37.40
2024-05-09T13:38:18.955Z,38.00
2024-05-09T13:40:47.010Z,38.80
2024-05-09T13:43:14.746Z,39.00
2024-05-09T13:45:42.722Z,37.50
2024-05-09T13:48:10.829Z,36.20
2024-05-09T13:50:39.206Z,34.90
2024-05-09T13:53:07.912Z,33.80
2024-05-09T13:55:38.918Z,34.50
2024-05-09T13:58:07.758Z,34.10
2024-05-09T14:03:06.434Z,35.80
2024-05-09T14:05:34.036Z,36.90
2024-05-09T14:08:01.667Z,37.10
2024-05-09T14:10:32.722Z,37.30
2024-05-09T14:13:01.438Z,37.90
2024-05-09T14:15:28.926Z,38.50
2024-05-09T14:17:56.434Z,39.00
2024-05-09T14:20:30.724Z,39.00
2024-05-09T14:23:01.036Z,35.70
2024-05-09T14:25:30.004Z,34.60
2024-05-09T14:28:00.461Z,34.50
2024-05-09T14:30:34.888Z,34.90
2024-05-09T14:33:06.650Z,35.00
2024-05-09T14:35:35.077Z,35.10
2024-05-09T14:38:03.337Z,35.50
2024-05-09T14:40:40.613Z,36.60
2024-05-09T14:43:12.853Z,37.80
2024-05-09T14:45:41.325Z,38.90
2024-05-09T14:48:09.342Z,39.20
2024-05-09T14:50:39.436Z,39.00
2024-05-09T14:53:09.088Z,38.30
2024-05-09T14:55:38.780Z,37.80
2024-05-09T14:58:07.563Z,38.10
2024-05-09T15:00:44.610Z,38.30
2024-05-09T15:03:15.743Z,38.10
2024-05-09T15:05:43.394Z,38.10
2024-05-09T15:08:10.837Z,38.80
2024-05-09T15:10:38.929Z,39.20
2024-05-09T15:13:08.715Z,38.30
2024-05-09T15:15:37.789Z,38.80
2024-05-09T15:18:06.503Z,39.40
2024-05-09T15:20:36.836Z,39.40
2024-05-09T15:23:07.145Z,38.80
2024-05-09T15:25:36.619Z,38.00
2024-05-09T15:28:08.284Z,37.80
2024-05-09T15:30:36.480Z,38.30
2024-05-09T15:33:04.739Z,38.50
2024-05-09T15:35:33.415Z,38.30
2024-05-09T15:38:02.793Z,38.40
2024-05-09T15:40:37.671Z,38.50
2024-05-09T15:43:10.213Z,38.20
2024-05-09T15:45:39.671Z,37.70
2024-05-09T15:48:09.458Z,38.10
2024-05-09T15:50:40.856Z,37.80
2024-05-09T15:53:11.696Z,37.50
2024-05-09T15:55:39.934Z,37.60
2024-05-09T15:58:08.219Z,37.80
2024-05-09T16:00:40.044Z,37.30
2024-05-09T16:03:11.761Z,36.40
2024-05-09T16:05:41.158Z,34.60
2024-05-09T16:08:09.373Z,34.60
2024-05-09T16:10:42.435Z,34.10
2024-05-09T16:13:12.019Z,32.70
2024-05-09T16:15:39.639Z,30.90
2024-05-09T16:18:07.686Z,29.60
2024-05-09T16:20:40.062Z,28.50
2024-05-09T16:23:10.123Z,28.00
2024-05-09T16:25:38.147Z,27.70
2024-05-09T16:28:09.750Z,27.50
2024-05-09T16:30:39.511Z,27.00
2024-05-09T16:33:08.136Z,27.40
2024-05-09T16:35:36.497Z,28.90
2024-05-09T16:38:04.733Z,29.20
2024-05-09T16:40:38.578Z,28.60
2024-05-09T16:43:13.179Z,28.20
2024-05-09T16:45:44.586Z,29.60
2024-05-09T16:48:14.071Z,31.30
2024-05-09T16:50:41.818Z,32.60
2024-05-09T16:53:09.885Z,33.60
2024-05-09T16:55:37.411Z,34.40
2024-05-09T16:58:06.688Z,34.30
2024-05-09T17:00:40.831Z,34.10
2024-05-09T17:03:13.094Z,32.50
2024-05-09T17:05:42.381Z,30.30
2024-05-09T17:08:10.177Z,29.70
2024-05-09T17:10:37.780Z,29.80
2024-05-09T17:13:07.508Z,30.20
2024-05-09T17:15:37.259Z,30.70
2024-05-09T17:18:09.895Z,30.30
2024-05-09T17:20:38.049Z,29.70
2024-05-09T17:23:15.051Z,29.80
2024-05-09T17:25:43.311Z,30.10
2024-05-09T17:28:12.026Z,30.20
2024-05-09T17:30:41.601Z,29.80
2024-05-09T17:33:11.753Z,29.80
2024-05-09T17:35:40.384Z,29.60
2024-05-09T17:38:07.991Z,29.40
2024-05-09T17:40:37.610Z,29.30
2024-05-09T17:43:09.053Z,29.50
2024-05-09T17:45:39.060Z,29.10
2024-05-09T17:48:07.894Z,28.40
2024-05-09T17:50:37.356Z,27.40
2024-05-09T17:53:09.096Z,26.40
2024-05-09T17:55:36.991Z,25.70
2024-05-09T17:58:05.539Z,25.00
2024-05-09T18:00:39.109Z,24.50
2024-05-09T18:03:13.740Z,24.00
2024-05-09T18:05:43.526Z,23.60
2024-05-09T18:08:11.908Z,23.10
2024-05-09T18:10:41.201Z,22.80
2024-05-09T18:13:09.654Z,22.60
2024-05-09T18:15:37.536Z,22.30
2024-05-09T18:18:05.970Z,22.10
2024-05-09T18:20:41.618Z,21.90
2024-05-09T18:23:17.561Z,21.70
2024-05-09T18:25:47.351Z,21.60
2024-05-09T18:28:16.849Z,21.50
2024-05-09T18:30:44.876Z,21.30
2024-05-09T18:33:13.095Z,21.10
2024-05-09T18:35:44.998Z,21.00
2024-05-09T18:38:12.716Z,20.90
2024-05-09T18:40:42.087Z,20.80
2024-05-09T18:43:11.395Z,20.60
2024-05-09T18:45:39.212Z,20.50
2024-05-09T18:48:09.119Z,20.40
2024-05-09T18:50:39.811Z,20.30
2024-05-09T18:53:11.394Z,20.10
2024-05-09T18:55:39.867Z,20.00
2024-05-09T18:58:07.584Z,19.90
2024-05-09T19:00:38.467Z,19.80
2024-05-09T19:03:10.775Z,19.70
2024-05-09T19:05:40.987Z,19.60
2024-05-09T19:08:09.118Z,19.40
2024-05-09T19:10:39.143Z,19.20
2024-05-09T19:13:11.542Z,19.00
2024-05-09T19:15:41.859Z,18.90
2024-05-09T19:18:10.711Z,18.80
2024-05-09T19:20:38.991Z,18.70
2024-05-09T19:23:07.635Z,18.60
2024-05-09T19:25:36.144Z,18.50
2024-05-09T19:28:04.741Z,18.40
2024-05-09T19:30:39.377Z,18.40
2024-05-09T19:33:11.242Z,18.30
2024-05-09T19:35:40.009Z,18.20
2024-05-09T19:38:07.787Z,18.10
2024-05-09T19:40:35.867Z,18.00
2024-05-09T19:43:05.672Z,17.90
2024-05-09T19:45:35.413Z,17.90
2024-05-09T19:53:50.643Z,17.70
2024-05-09T19:56:18.217Z,17.60
2024-05-09T19:58:46.286Z,17.60
2024-05-09T20:01:13.905Z,17.60
2024-05-09T20:03:41.511Z,17.50
2024-05-09T20:06:08.979Z,17.40
2024-05-09T20:08:36.347Z,17.30
2024-05-09T20:11:03.891Z,17.20
2024-05-09T20:13:31.333Z,17.10
2024-05-09T20:15:58.833Z,17.00
2024-05-09T20:18:26.508Z,16.90
2024-05-09T20:20:54.269Z,16.80
2024-05-09T20:23:21.855Z,16.80
2024-05-09T20:25:49.331Z,16.80
2024-05-09T20:28:16.753Z,16.70
2024-05-09T20:30:44.217Z,16.60
2024-05-09T20:33:12.963Z,16.60
2024-05-09T20:35:40.573Z,16.50
2024-05-09T20:38:08.089Z,16.40
2024-05-09T20:40:38.501Z,16.30
2024-05-09T20:43:09.722Z,16.20
2024-05-09T20:45:37.804Z,16.10
2024-05-09T20:48:06.535Z,16.10
2024-05-09T20:50:39.270Z,16.00
2024-05-09T20:53:10.890Z,16.00
2024-05-09T20:55:39.250Z,15.90
2024-05-09T20:58:07.571Z,15.80
2024-05-09T21:00:39.959Z,15.80
2024-05-09T21:03:11.799Z,15.80
2024-05-09T21:05:40.150Z,15.60
2024-05-09T21:08:08.143Z,15.60
2024-05-09T21:10:37.112Z,15.50
2024-05-09T21:13:06.296Z,15.40
2024-05-09T21:15:34.700Z,15.50
2024-05-09T21:18:02.554Z,15.40
2024-05-09T21:20:32.774Z,15.40
2024-05-09T21:23:02.021Z,15.10
2024-05-09T21:25:30.115Z,15.00
2024-05-09T21:27:57.884Z,14.80
2024-05-09T21:32:55.946Z,14.60
2024-05-09T21:35:23.364Z,14.50
2024-05-09T21:37:50.692Z,14.40
2024-05-09T21:40:27.011Z,14.30
2024-05-09T21:43:01.201Z,14.20
2024-05-09T21:45:28.679Z,14.10
2024-05-09T21:47:56.249Z,14.10
2024-05-09T21:50:31.673Z,14.10
2024-05-09T21:53:06.804Z,14.00
2024-05-09T21:55:34.627Z,13.90
2024-05-09T21:58:02.757Z,13.80
2024-05-09T22:00:36.297Z,13.80
2024-05-09T22:03:10.951Z,13.90
2024-05-09T22:05:42.067Z,13.90
2024-05-09T22:08:09.865Z,13.90
2024-05-09T22:10:37.591Z,13.90
2024-05-09T22:13:06.548Z,13.80
2024-05-09T22:15:39.968Z,13.80
2024-05-09T22:18:09.736Z,13.70
2024-05-09T22:20:44.265Z,13.60
2024-05-09T22:23:12.820Z,13.60
2024-05-09T22:25:40.371Z,13.50
2024-05-09T22:28:08.376Z,13.30
2024-05-09T22:30:39.086Z,13.20
2024-05-09T22:33:09.870Z,13.20
2024-05-09T22:35:39.440Z,13.10
2024-05-09T22:38:07.040Z,13.10
2024-05-09T22:40:45.338Z,13.20
2024-05-09T22:43:21.062Z,13.20
2024-05-09T22:45:50.290Z,13.10
2024-05-09T22:48:18.440Z,13.10
2024-05-09T22:50:45.889Z,13.10
2024-05-09T22:53:13.220Z,13.10
2024-05-09T22:55:40.564Z,13.10
2024-05-09T22:58:08.209Z,13.00
2024-05-09T23:00:35.901Z,13.00
2024-05-09T23:03:03.708Z,13.00
2024-05-09T23:05:34.771Z,13.10
2024-05-09T23:08:02.965Z,13.20
2024-05-09T23:10:36.062Z,13.20
2024-05-09T23:13:07.658Z,13.20
2024-05-09T23:15:36.226Z,13.20
2024-05-09T23:18:04.012Z,13.20
2024-05-09T23:20:37.146Z,13.20
2024-05-09T23:23:07.580Z,13.10
2024-05-09T23:25:35.322Z,13.10
2024-05-09T23:28:03.161Z,12.90
2024-05-09T23:30:37.503Z,12.90
2024-05-09T23:33:08.715Z,13.00
2024-05-09T23:35:36.410Z,12.90
2024-05-09T23:38:04.022Z,12.80
2024-05-09T23:40:38.494Z,12.70
2024-05-09T23:43:12.204Z,12.70
2024-05-09T23:45:40.512Z,12.60
2024-05-09T23:48:09.934Z,12.60
2024-05-09T23:50:39.405Z,12.60
2024-05-09T23:53:09.418Z,12.50
2024-05-09T23:55:37.916Z,12.50
2024-05-09T23:58:06.635Z,12.40
